Impacts TAF Board INFO
FOR SITUATIONAL AWARENESS. NOT TO BE USED FOR FLIGHT PLANNING PURPOSES.
IDs:

KSEA - Seattle-Tacoma Intl, WA, US

Issued at 1314 UTC 19 Nov 2017
Updated at 1413 UTC 19 Nov 2017
Potential Impact None Slight Moderate High
Time<<20/03Z 20/04Z 20/05Z 20/06Z 20/07Z 20/08Z 20/09Z 20/10Z 20/11Z 20/12Z 20/13Z 20/14Z 20/15Z>>
Type PRVL PRVL PRVL PRVL PRVL PRVL PRVL PRVL PRVL PRVL PRVL PRVL PRVL
VIS 4 4 >6 >6 >6 >6 >6 >6 >6 >6 >6 >6 >6
CIG 8 8 18 18 18 18 18 18 18 18 18 -- --
Cover OVC OVC OVC OVC OVC OVC OVC OVC OVC OVC OVC SCT SCT
FltCat IFR IFR MVFR MVFR MVFR MVFR MVFR MVFR MVFR MVFR MVFR VFR VFR
WX -RA BR -RA BR -SHRA -SHRA -SHRA -SHRA -SHRA -SHRA -SHRA -SHRA -SHRA -- --
WDir 180 180 200 200 200 200 200 200 200 200 200 VRB VRB
WSpd 15 15 10 10 10 10 10 10 10 10 10 4 4
WGst 25 25 -- -- -- -- -- -- -- -- -- -- --

Raw TAF
KSEA 191314Z 1913/2018 13007KT P6SM BKN060 OVC120
  FM192000 18012G20KT P6SM VCSH SCT040 OVC070
  FM192200 18016G25KT 6SM -RA BR SCT008 BKN015 OVC025
  FM200200 18015G25KT 4SM -RA BR BKN008 OVC015
  FM200500 20010KT P6SM -SHRA SCT010 BKN018 OVC025
  FM201400 VRB04KT P6SM SCT020 SCT035


METAR Board
Radar Display
Forecast Discussion

FOR SITUATIONAL AWARENESS. NOT TO BE USED FOR FLIGHT PLANNING PURPOSES.